Time;durP1;ratioP1;P1;durP2;ratioP2;P2;SDS_P1;SDS_P2;PMS_P1;PMS_P2;Temp;Humidity;BMP_temperature;BMP_pressure;BME280_temperature;BME280_humidity;BME280_pressure;Samples;Min_cycle;Max_cycle;Signal;HPM_P1;HPM_P2
2022/05/12 00:00:54;;;;;;;;;;;;;;;21.62;49.76;101345.59;7288417;19;153455;-58
2022/05/12 00:03:20;;;;;;;;;;;;;;;21.60;49.70;101348.69;7287657;19;151931;-58
2022/05/12 00:05:47;;;;;;;;;;;;;;;21.61;49.84;101347.56;7286056;19;153596;-58
2022/05/12 00:08:14;;;;;;;;;;;;;;;21.58;50.01;101350.97;7285787;19;154309;-58
2022/05/12 00:10:42;;;;;;;;;;;;;;;21.56;49.94;101358.88;7293811;19;151792;-57
2022/05/12 00:13:08;;;;;;;;;;;;;;;21.61;49.68;101356.00;7287859;19;153269;-57
2022/05/12 00:15:36;;;;;;;;;;;;;;;21.58;49.77;101364.19;7288250;19;152364;-57
2022/05/12 00:18:06;;;;;;;;;;;;;;;21.54;49.96;101365.94;7287718;19;154143;-56
2022/05/12 00:20:35;;;;;;;;;;;;;;;21.53;49.96;101373.53;7285358;19;153987;-57
2022/05/12 00:23:12;;;;;;;;;;;;;;;21.52;50.21;101377.50;7288031;19;151600;-58
2022/05/12 00:25:40;;;;;;;;;;;;;;;21.48;50.09;101370.81;7287502;19;154332;-59
2022/05/12 00:28:07;;;;;;;;;;;;;;;21.50;50.16;101381.75;7287206;19;154113;-57
2022/05/12 00:30:34;;;;;;;;;;;;;;;21.49;50.22;101391.31;7287256;19;152017;-58
2022/05/12 00:33:01;;;;;;;;;;;;;;;21.47;50.03;101385.19;7292246;19;152902;-57
2022/05/12 00:35:28;;;;;;;;;;;;;;;21.45;50.30;101391.09;7286022;19;151947;-57
2022/05/12 00:37:54;;;;;;;;;;;;;;;21.44;50.49;101388.63;7285199;19;152683;-57
2022/05/12 00:40:22;;;;;;;;;;;;;;;21.44;50.19;101388.63;7286328;19;153971;-57
2022/05/12 00:42:52;;;;;;;;;;;;;;;21.43;50.50;101398.19;7287166;19;151861;-56
2022/05/12 00:45:19;;;;;;;;;;;;;;;21.41;50.79;101394.81;7285674;19;154693;-56
2022/05/12 00:47:46;;;;;;;;;;;;;;;21.40;50.49;101390.31;7280870;19;152928;-57
2022/05/12 00:50:14;;;;;;;;;;;;;;;21.39;50.65;101405.53;7284732;19;151846;-57
2022/05/12 00:52:42;;;;;;;;;;;;;;;21.38;50.96;101401.91;7284998;19;151994;-56
2022/05/12 00:55:12;;;;;;;;;;;;;;;21.36;50.68;101398.53;7291761;19;153299;-57
2022/05/12 00:57:42;;;;;;;;;;;;;;;21.37;50.94;101393.75;7287426;19;152526;-57
2022/05/12 01:00:11;;;;;;;;;;;;;;;21.38;51.49;101389.81;7284768;19;153823;-57
2022/05/12 01:02:39;;;;;;;;;;;;;;;21.36;51.20;101392.91;7285162;19;151738;-59
2022/05/12 01:05:06;;;;;;;;;;;;;;;21.35;51.03;101393.25;7286293;19;152554;-58
2022/05/12 01:07:37;;;;;;;;;;;;;;;21.34;51.23;101395.22;7282563;19;153617;-57
2022/05/12 01:10:05;;;;;;;;;;;;;;;21.33;51.41;101399.16;7285996;19;151910;-59
2022/05/12 01:12:32;;;;;;;;;;;;;;;21.32;51.47;101403.09;7285843;19;153664;-57
2022/05/12 01:14:59;;;;;;;;;;;;;;;21.31;51.46;101398.59;7285322;19;153249;-57
2022/05/12 01:17:26;;;;;;;;;;;;;;;21.30;51.21;101394.16;7293856;19;152074;-57
2022/05/12 01:19:53;;;;;;;;;;;;;;;21.32;51.21;101397.47;7281479;19;153359;-57
2022/05/12 01:22:29;;;;;;;;;;;;;;;21.29;51.37;101398.94;7285122;19;151786;-58
2022/05/12 01:24:56;;;;;;;;;;;;;;;21.28;51.66;101396.41;7286883;19;152625;-58
2022/05/12 01:27:23;;;;;;;;;;;;;;;21.27;51.50;101400.34;7283443;19;154414;-58
2022/05/12 01:29:53;;;;;;;;;;;;;;;21.27;51.24;101409.63;7284624;19;152184;-58
2022/05/12 01:32:21;;;;;;;;;;;;;;;21.26;51.40;101415.53;7286209;19;153023;-57
2022/05/12 01:34:48;;;;;;;;;;;;;;;21.25;51.52;101413.91;7284180;19;153639;-57
2022/05/12 01:37:15;;;;;;;;;;;;;;;21.23;51.21;101413.34;7286903;19;152012;-57
2022/05/12 01:39:42;;;;;;;;;;;;;;;21.22;51.38;101420.94;7292577;19;153298;-57
2022/05/12 01:42:08;;;;;;;;;;;;;;;21.22;51.36;101414.47;7286244;19;151746;-57
2022/05/12 01:44:35;;;;;;;;;;;;;;;21.21;51.39;101424.06;7286371;19;153287;-60
2022/05/12 01:47:03;;;;;;;;;;;;;;;21.23;51.35;101419.81;7281384;19;153257;-59
2022/05/12 01:49:30;;;;;;;;;;;;;;;21.21;51.44;101413.63;7282828;19;151858;-60
2022/05/12 01:51:58;;;;;;;;;;;;;;;21.19;51.83;101423.53;7283573;19;152634;-60
2022/05/12 01:54:25;;;;;;;;;;;;;;;21.19;51.54;101427.16;7283665;19;154059;-60
2022/05/12 01:56:52;;;;;;;;;;;;;;;21.21;51.43;101429.69;7281652;19;152076;-60
2022/05/12 01:59:19;;;;;;;;;;;;;;;21.17;51.95;101426.63;7283561;19;153998;-60
2022/05/12 02:01:47;;;;;;;;;;;;;;;21.18;52.03;101436.72;7292271;19;151940;-57
2022/05/12 02:04:14;;;;;;;;;;;;;;;21.17;52.10;101432.25;7284199;19;153384;-58
2022/05/12 02:06:41;;;;;;;;;;;;;;;21.16;51.97;101436.22;7283461;19;153215;-57
2022/05/12 02:09:08;;;;;;;;;;;;;;;21.16;51.77;101433.41;7286509;19;152310;-56
2022/05/12 02:11:35;;;;;;;;;;;;;;;21.15;51.85;101431.72;7283444;19;151875;-57
2022/05/12 02:14:02;;;;;;;;;;;;;;;21.18;52.21;101427.47;7281888;19;153637;-58
2022/05/12 02:16:30;;;;;;;;;;;;;;;21.17;52.16;101426.63;7283755;19;151811;-57
2022/05/12 02:18:57;;;;;;;;;;;;;;;21.15;52.65;101433.69;7285728;19;151950;-56
2022/05/12 02:21:24;;;;;;;;;;;;;;;21.14;52.82;101432.00;7291018;19;154184;-57
2022/05/12 02:23:54;;;;;;;;;;;;;;;21.12;52.72;101442.69;7283913;19;151678;-57
2022/05/12 02:26:21;;;;;;;;;;;;;;;21.13;53.07;101441.56;7280462;19;154599;-58
2022/05/12 02:28:48;;;;;;;;;;;;;;;21.10;52.80;101440.19;7284909;19;151603;-57
2022/05/12 02:31:15;;;;;;;;;;;;;;;21.09;52.64;101437.66;7282651;19;153769;-57
2022/05/12 02:33:43;;;;;;;;;;;;;;;21.10;52.76;101444.97;7284180;19;153315;-57
2022/05/12 02:36:10;;;;;;;;;;;;;;;21.09;52.65;101434.84;7285866;19;152328;-57
2022/05/12 02:38:36;;;;;;;;;;;;;;;21.07;52.94;101442.75;7285170;19;153255;-56
2022/05/12 02:41:03;;;;;;;;;;;;;;;21.07;52.94;101437.16;7280709;19;153799;-56
2022/05/12 02:43:31;;;;;;;;;;;;;;;21.06;52.88;101450.34;7293867;19;151796;-57
2022/05/12 02:46:00;;;;;;;;;;;;;;;21.06;53.03;101446.69;7283583;19;153442;-58
2022/05/12 02:48:29;;;;;;;;;;;;;;;21.05;52.72;101447.84;7285197;19;151487;-58
2022/05/12 02:51:11;;;;;;;;;;;;;;;21.04;52.50;101455.41;7277721;19;153112;-56
2022/05/12 02:54:02;;;;;;;;;;;;;;;21.03;52.60;101455.75;7281143;19;152640;-57
2022/05/12 02:56:29;;;;;;;;;;;;;;;21.03;52.63;101450.13;7282289;19;152639;-56
2022/05/12 02:58:55;;;;;;;;;;;;;;;21.01;52.78;101458.84;7281460;19;152598;-58
2022/05/12 03:01:22;;;;;;;;;;;;;;;21.03;52.47;101447.31;7282884;19;153459;-57
2022/05/12 03:03:49;;;;;;;;;;;;;;;21.02;52.02;101454.91;7281844;19;151974;-57
2022/05/12 03:06:16;;;;;;;;;;;;;;;21.01;52.51;101455.19;7290719;19;152585;-57
2022/05/12 03:08:44;;;;;;;;;;;;;;;21.00;52.03;101454.34;7283939;19;151724;-57
2022/05/12 03:11:11;;;;;;;;;;;;;;;20.98;52.54;101465.06;7279430;19;152877;-56
2022/05/12 03:13:38;;;;;;;;;;;;;;;21.00;52.17;101464.75;7282499;19;154135;-57
2022/05/12 03:16:05;;;;;;;;;;;;;;;20.97;52.53;101456.94;7283657;19;152156;-57
2022/05/12 03:18:33;;;;;;;;;;;;;;;20.96;52.08;101469.28;7284475;19;152642;-56
2022/05/12 03:21:00;;;;;;;;;;;;;;;20.98;52.32;101467.03;7280750;19;153585;-57
2022/05/12 03:23:27;;;;;;;;;;;;;;;20.97;51.89;101474.63;7282425;19;152095;-56
2022/05/12 03:25:55;;;;;;;;;;;;;;;20.95;52.15;101470.41;7282843;19;152584;-57
2022/05/12 03:28:22;;;;;;;;;;;;;;;20.92;52.13;101462.59;7286912;19;156477;-56
2022/05/12 03:30:50;;;;;;;;;;;;;;;20.92;51.87;101463.44;7280747;19;153584;-57
2022/05/12 03:33:17;;;;;;;;;;;;;;;20.91;51.85;101461.75;7284329;19;152980;-57
2022/05/12 03:35:45;;;;;;;;;;;;;;;20.90;52.08;101465.69;7283803;19;152176;-57
2022/05/12 03:38:13;;;;;;;;;;;;;;;20.89;52.12;101461.25;7284925;19;153611;-57
2022/05/12 03:40:40;;;;;;;;;;;;;;;20.91;51.97;101467.38;7280833;19;152267;-57
2022/05/12 03:43:07;;;;;;;;;;;;;;;20.93;52.23;101465.13;7284419;19;152273;-57
2022/05/12 03:45:34;;;;;;;;;;;;;;;20.91;51.96;101470.19;7282513;19;152170;-58
2022/05/12 03:48:01;;;;;;;;;;;;;;;20.90;51.96;101468.50;7280326;19;151948;-57
2022/05/12 03:50:28;;;;;;;;;;;;;;;20.90;52.38;101470.47;7286120;19;152060;-57
2022/05/12 03:52:56;;;;;;;;;;;;;;;20.90;52.11;101470.47;7277460;19;155401;-58
2022/05/12 03:55:24;;;;;;;;;;;;;;;20.89;52.03;101466.84;7282191;19;151989;-57
2022/05/12 03:57:53;;;;;;;;;;;;;;;20.89;52.19;101474.44;7282341;19;152654;-58
2022/05/12 04:00:23;;;;;;;;;;;;;;;20.85;52.22;101471.38;7279454;19;153949;-57
2022/05/12 04:02:50;;;;;;;;;;;;;;;20.86;51.91;101481.47;7282199;19;151871;-58
2022/05/12 04:05:20;;;;;;;;;;;;;;;20.84;52.33;101473.38;7282467;19;152626;-58
2022/05/12 04:07:49;;;;;;;;;;;;;;;20.86;52.13;101473.88;7279315;19;153222;-56
2022/05/12 04:10:16;;;;;;;;;;;;;;;20.83;51.86;101482.09;7290638;19;153030;-57
2022/05/12 04:12:43;;;;;;;;;;;;;;;20.80;52.27;101486.31;7281025;19;154009;-58
2022/05/12 04:15:11;;;;;;;;;;;;;;;20.81;52.20;101487.16;7283207;19;151927;-57
2022/05/12 04:17:38;;;;;;;;;;;;;;;20.80;52.15;101489.13;7281816;19;152888;-58
2022/05/12 04:20:07;;;;;;;;;;;;;;;20.80;52.25;101491.91;7280870;19;153938;-58
2022/05/12 04:22:33;;;;;;;;;;;;;;;20.78;51.80;101491.41;7283355;19;151523;-57
2022/05/12 04:25:00;;;;;;;;;;;;;;;20.78;51.62;101490.56;7288813;19;152511;-57
2022/05/12 04:27:27;;;;;;;;;;;;;;;20.75;51.85;101493.97;7285335;19;154717;-58
2022/05/12 04:29:54;;;;;;;;;;;;;;;20.74;51.99;101495.09;7285661;19;152112;-57
2022/05/12 04:32:22;;;;;;;;;;;;;;;20.73;52.22;101496.22;7293847;19;152231;-56
2022/05/12 04:37:26;;;;;;;;;;;;;;;20.72;52.06;101484.16;7289569;19;153307;-58
2022/05/12 04:39:54;;;;;;;;;;;;;;;20.72;51.70;101489.78;7287029;19;153659;-58
2022/05/12 04:42:21;;;;;;;;;;;;;;;20.71;51.64;101490.09;7288415;19;151576;-57
2022/05/12 04:44:48;;;;;;;;;;;;;;;20.69;52.08;101495.16;7287603;19;152592;-58
2022/05/12 04:47:15;;;;;;;;;;;;;;;20.69;51.82;101501.59;7286118;19;153919;-57
2022/05/12 04:49:42;;;;;;;;;;;;;;;20.67;52.04;101509.47;7287026;19;152980;-58
2022/05/12 04:52:09;;;;;;;;;;;;;;;20.68;52.08;101510.31;7283718;19;152864;-57
2022/05/12 04:54:36;;;;;;;;;;;;;;;20.70;52.21;101513.69;7292047;19;153583;-58
2022/05/12 04:57:04;;;;;;;;;;;;;;;20.68;52.34;101518.75;7285926;19;152571;-58
2022/05/12 04:59:32;;;;;;;;;;;;;;;20.66;52.14;101513.44;7284137;19;154112;-58
2022/05/12 05:01:59;;;;;;;;;;;;;;;20.65;52.52;101519.34;7286140;19;152015;-57
2022/05/12 05:04:26;;;;;;;;;;;;;;;20.65;52.15;101522.16;7285546;19;151622;-56
2022/05/12 05:06:53;;;;;;;;;;;;;;;20.66;52.46;101515.41;7284027;19;154599;-58
2022/05/12 05:09:26;;;;;;;;;;;;;;;20.67;52.10;101529.13;7287907;19;152173;-57
2022/05/12 05:11:54;;;;;;;;;;;;;;;20.64;52.29;101535.34;7284070;19;153389;-58
2022/05/12 05:14:20;;;;;;;;;;;;;;;20.63;52.30;101538.44;7287534;19;153210;-58
2022/05/12 05:16:48;;;;;;;;;;;;;;;20.62;52.33;101536.78;7294590;19;152088;-60
2022/05/12 05:19:16;;;;;;;;;;;;;;;20.59;52.58;101542.97;7284824;19;152643;-60
2022/05/12 05:21:47;;;;;;;;;;;;;;;20.58;52.52;101542.13;7286281;19;152784;-61
2022/05/12 05:24:23;;;;;;;;;;;;;;;20.57;52.16;101548.06;7287196;19;153100;-59
2022/05/12 05:26:50;;;;;;;;;;;;;;;20.61;52.17;101547.19;7285512;19;153388;-60
2022/05/12 05:29:18;;;;;;;;;;;;;;;20.59;52.39;101546.63;7282714;19;151930;-60
2022/05/12 05:31:45;;;;;;;;;;;;;;;20.56;52.08;101547.22;7285610;19;153552;-60
2022/05/12 05:34:12;;;;;;;;;;;;;;;20.55;52.59;101550.31;7284650;19;153612;-61
2022/05/12 05:36:42;;;;;;;;;;;;;;;20.54;52.53;101546.66;7285999;19;151728;-60
2022/05/12 05:39:22;;;;;;;;;;;;;;;20.53;52.50;101553.44;7290207;19;153267;-57
2022/05/12 05:41:53;;;;;;;;;;;;;;;20.52;51.97;101551.75;7284808;19;152061;-60
2022/05/12 05:44:20;;;;;;;;;;;;;;;20.51;52.55;101552.88;7287286;19;152626;-60
2022/05/12 05:46:47;;;;;;;;;;;;;;;20.51;52.02;101549.22;7285621;19;154558;-61
2022/05/12 05:49:16;;;;;;;;;;;;;;;20.49;51.99;101552.31;7282156;19;152365;-60
2022/05/12 05:54:19;;;;;;;;;;;;;;;20.48;52.02;101561.88;7279253;19;152346;-59
2022/05/12 05:56:47;;;;;;;;;;;;;;;20.49;52.06;101563.53;7283364;19;152066;-60
2022/05/12 05:59:14;;;;;;;;;;;;;;;20.46;52.04;101575.38;7285232;19;152864;-58
2022/05/12 06:01:41;;;;;;;;;;;;;;;20.45;52.20;101579.28;7292932;19;153828;-57
2022/05/12 06:04:08;;;;;;;;;;;;;;;20.44;52.20;101591.69;7285295;19;152813;-57
2022/05/12 06:06:35;;;;;;;;;;;;;;;20.47;52.05;101584.63;7285351;19;153290;-57
2022/05/12 06:09:02;;;;;;;;;;;;;;;20.44;51.98;101591.69;7280723;19;151860;-57
2022/05/12 06:11:29;;;;;;;;;;;;;;;20.43;52.06;101601.22;7283719;19;152745;-57
2022/05/12 06:13:56;;;;;;;;;;;;;;;20.42;52.29;101594.78;7285180;19;153138;-58
2022/05/12 06:16:23;;;;;;;;;;;;;;;20.45;52.51;101595.28;7286892;19;151552;-57
2022/05/12 06:18:50;;;;;;;;;;;;;;;20.46;53.05;101602.59;7284013;19;154458;-59
2022/05/12 06:21:16;;;;;;;;;;;;;;;20.50;52.56;101606.50;7289976;19;152160;-57
2022/05/12 06:23:43;;;;;;;;;;;;;;;20.46;52.66;101623.09;7282497;19;152907;-60
2022/05/12 06:26:14;;;;;;;;;;;;;;;20.50;52.56;101617.72;7284425;19;154388;-59
2022/05/12 06:28:45;;;;;;;;;;;;;;;20.46;52.33;101625.91;7281745;19;153276;-58
2022/05/12 06:31:15;;;;;;;;;;;;;;;20.04;47.97;101625.56;7285623;19;153117;-57
2022/05/12 06:33:42;;;;;;;;;;;;;;;20.04;49.60;101625.56;7282256;19;154042;-58
2022/05/12 06:36:09;;;;;;;;;;;;;;;20.07;49.59;101625.84;7285849;19;151909;-62
2022/05/12 06:38:36;;;;;;;;;;;;;;;20.14;49.38;101625.50;7285377;19;152625;-60
2022/05/12 06:41:04;;;;;;;;;;;;;;;20.14;49.45;101617.09;7281188;19;153385;-60
2022/05/12 06:43:31;;;;;;;;;;;;;;;20.14;49.83;101615.13;7293742;19;151648;-61
2022/05/12 06:45:57;;;;;;;;;;;;;;;20.18;49.67;101627.44;7283248;19;151979;-60
2022/05/12 06:48:24;;;;;;;;;;;;;;;20.14;49.58;101629.16;7283170;19;151885;-62
2022/05/12 06:50:52;;;;;;;;;;;;;;;20.11;49.50;101626.09;7284199;19;152566;-62
2022/05/12 06:53:18;;;;;;;;;;;;;;;20.12;49.77;101631.44;7279917;19;153388;-61
2022/05/12 06:55:45;;;;;;;;;;;;;;;20.12;49.79;101636.19;7281522;19;151720;-60
2022/05/12 06:58:14;;;;;;;;;;;;;;;20.10;49.83;101641.25;7283364;19;152809;-62
2022/05/12 07:00:41;;;;;;;;;;;;;;;20.14;49.73;101650.75;7280342;19;155643;-62
2022/05/12 07:03:11;;;;;;;;;;;;;;;20.13;49.28;101654.69;7284198;19;152043;-62
2022/05/12 07:05:39;;;;;;;;;;;;;;;20.14;49.00;101650.75;7289757;19;153628;-61
2022/05/12 07:08:07;;;;;;;;;;;;;;;20.10;49.52;101650.50;7284440;19;152210;-62
2022/05/12 07:10:34;;;;;;;;;;;;;;;20.13;49.54;101651.88;7281661;19;153051;-61
2022/05/12 07:13:01;;;;;;;;;;;;;;;20.11;49.48;101649.38;7281344;19;152853;-62
2022/05/12 07:15:28;;;;;;;;;;;;;;;20.04;49.58;101646.03;7283869;19;151535;-61
2022/05/12 07:17:56;;;;;;;;;;;;;;;20.04;49.72;101645.19;7282195;19;153682;-60
2022/05/12 07:28:04;;;;;;;;;;;;;;;20.16;50.04;101662.53;7288937;19;153806;-61
2022/05/12 07:31:00;;;;;;;;;;;;;;;20.13;49.55;101660.28;7277613;19;152918;-62
2022/05/12 07:33:17;;;;;;;;;;;;;;;20.03;49.50;101654.75;7282137;19;154249;-62
2022/05/12 07:35:44;;;;;;;;;;;;;;;20.04;49.69;101654.44;7283423;19;152257;-61
2022/05/12 07:38:11;;;;;;;;;;;;;;;20.00;49.53;101661.75;7283923;19;153135;-61
2022/05/12 07:40:38;;;;;;;;;;;;;;;20.02;49.34;101659.53;7279976;19;153324;-58
2022/05/12 07:43:05;;;;;;;;;;;;;;;20.02;49.32;101664.28;7283499;19;151958;-59
2022/05/12 07:45:32;;;;;;;;;;;;;;;20.02;49.56;101667.94;7280463;19;153415;-60
2022/05/12 07:47:59;;;;;;;;;;;;;;;19.95;49.62;101665.44;7280423;19;154680;-57
2022/05/12 07:50:28;;;;;;;;;;;;;;;19.93;49.39;101673.31;7289968;19;151705;-59
2022/05/12 07:52:55;;;;;;;;;;;;;;;19.96;49.25;101669.06;7282317;19;154253;-58
2022/05/12 07:55:22;;;;;;;;;;;;;;;19.99;49.20;101676.91;7279251;19;153677;-58
2022/05/12 07:57:49;;;;;;;;;;;;;;;19.92;49.24;101679.19;7282534;19;152712;-59
2022/05/12 08:00:17;;;;;;;;;;;;;;;19.95;49.25;101670.19;7285646;19;153517;-58
2022/05/12 08:02:44;;;;;;;;;;;;;;;19.91;49.51;101678.34;7289259;19;152652;-62
2022/05/12 08:05:11;;;;;;;;;;;;;;;19.94;49.53;101671.34;7289593;19;152604;-59
2022/05/12 08:07:40;;;;;;;;;;;;;;;19.91;49.51;101677.50;7288007;19;153713;-58
2022/05/12 08:10:07;;;;;;;;;;;;;;;19.89;49.65;101668.56;7285305;19;152569;-59
2022/05/12 08:12:35;;;;;;;;;;;;;;;19.93;49.33;101658.44;7295471;19;153806;-60
2022/05/12 08:15:03;;;;;;;;;;;;;;;19.91;49.56;101666.28;7289045;19;151960;-59
2022/05/12 08:17:30;;;;;;;;;;;;;;;19.85;49.44;101661.84;7289283;19;153548;-59
2022/05/12 08:20:11;;;;;;;;;;;;;;;19.88;49.05;101662.09;7278864;19;152368;-59
2022/05/12 08:22:38;;;;;;;;;;;;;;;19.91;49.37;101666.28;7283807;19;151853;-58
2022/05/12 08:25:08;;;;;;;;;;;;;;;19.91;49.32;101674.69;7283962;19;153160;-57
2022/05/12 08:27:35;;;;;;;;;;;;;;;19.94;49.06;101669.34;7284125;19;153919;-58
2022/05/12 08:30:02;;;;;;;;;;;;;;;19.86;49.28;101667.16;7281889;19;152292;-58
2022/05/12 08:32:29;;;;;;;;;;;;;;;19.90;49.20;101678.63;7290511;19;153172;-59
2022/05/12 08:34:55;;;;;;;;;;;;;;;19.87;48.83;101679.22;7288389;19;151863;-58
2022/05/12 08:37:22;;;;;;;;;;;;;;;19.88;48.88;101680.91;7285276;19;152627;-59
2022/05/12 08:39:49;;;;;;;;;;;;;;;19.90;48.57;101676.66;7284352;19;153173;-57
2022/05/12 08:42:25;;;;;;;;;;;;;;;19.87;48.50;101676.41;7286357;19;151623;-58
2022/05/12 08:44:52;;;;;;;;;;;;;;;19.82;48.53;101680.06;7287577;19;151931;-58
2022/05/12 08:47:24;;;;;;;;;;;;;;;19.84;48.34;101672.22;7285947;19;153313;-59
2022/05/12 08:49:51;;;;;;;;;;;;;;;19.88;48.46;101672.47;7285781;19;152953;-58
2022/05/12 08:52:28;;;;;;;;;;;;;;;19.87;48.22;101685.66;7288375;19;152666;-59
2022/05/12 08:54:57;;;;;;;;;;;;;;;19.87;48.52;101677.25;7292975;19;154184;-58
2022/05/12 08:57:29;;;;;;;;;;;;;;;19.86;47.92;101678.38;7282480;19;153057;-59
2022/05/12 08:59:55;;;;;;;;;;;;;;;19.87;47.75;101684.81;7283869;19;151970;-57
2022/05/12 09:02:28;;;;;;;;;;;;;;;19.86;48.08;101683.13;7287410;19;152123;-59
2022/05/12 09:05:01;;;;;;;;;;;;;;;19.82;47.87;101676.41;7285615;19;152141;-60
2022/05/12 09:07:32;;;;;;;;;;;;;;;19.84;48.32;101675.03;7286476;19;153890;-61
2022/05/12 09:10:09;;;;;;;;;;;;;;;19.87;48.06;101682.00;7281643;19;151929;-62
2022/05/12 09:12:45;;;;;;;;;;;;;;;19.80;47.97;101673.09;7286060;19;153297;-61
2022/05/12 09:15:22;;;;;;;;;;;;;;;19.83;47.65;101670.53;7285686;19;153260;-62
2022/05/12 09:17:55;;;;;;;;;;;;;;;19.85;47.52;101679.47;7293617;19;152229;-60
2022/05/12 09:20:22;;;;;;;;;;;;;;;19.90;47.61;101671.06;7286060;19;153305;-60
2022/05/12 09:22:56;;;;;;;;;;;;;;;19.95;47.50;101670.19;7287529;19;151745;-60
2022/05/12 09:25:33;;;;;;;;;;;;;;;19.98;47.82;101672.44;7286542;19;153019;-61
2022/05/12 09:28:16;;;;;;;;;;;;;;;20.07;47.60;101678.28;7286138;19;152087;-62
2022/05/12 09:30:44;;;;;;;;;;;;;;;20.16;47.57;101674.59;7280086;19;151958;-60
2022/05/12 09:33:11;;;;;;;;;;;;;;;20.22;47.36;101676.25;7284331;19;153526;-61
2022/05/12 09:35:37;;;;;;;;;;;;;;;20.33;47.36;101665.84;7281133;19;152220;-61
2022/05/12 09:38:19;;;;;;;;;;;;;;;20.41;47.14;101670.84;7287141;19;151742;-61
2022/05/12 09:40:46;;;;;;;;;;;;;;;20.47;46.94;101663.22;7291597;19;153498;-61
2022/05/12 09:43:17;;;;;;;;;;;;;;;20.54;46.59;101670.19;7284820;19;151978;-60
2022/05/12 09:45:58;;;;;;;;;;;;;;;20.66;46.62;101675.47;7286082;19;152839;-61
2022/05/12 09:48:25;;;;;;;;;;;;;;;20.78;46.16;101671.16;7281634;19;151965;-60
2022/05/12 09:50:53;;;;;;;;;;;;;;;20.89;45.71;101669.09;7281461;19;152024;-62
2022/05/12 09:53:25;;;;;;;;;;;;;;;20.98;45.72;101664.53;7286853;19;152710;-61
2022/05/12 09:55:56;;;;;;;;;;;;;;;21.08;44.92;101656.00;7281695;19;152281;-60
2022/05/12 09:58:33;;;;;;;;;;;;;;;21.15;44.97;101659.34;7283114;19;151747;-60
2022/05/12 10:01:09;;;;;;;;;;;;;;;21.23;44.69;101652.22;7283445;19;152288;-61
2022/05/12 10:09:04;;;;;;;;;;;;;;;21.34;43.83;101641.75;7281582;19;154221;-62
2022/05/12 10:11:34;;;;;;;;;;;;;;;21.45;43.53;101646.94;7282472;19;151647;-61
2022/05/12 10:14:04;;;;;;;;;;;;;;;21.51;43.68;101653.34;7280451;19;152078;-62
2022/05/12 10:16:33;;;;;;;;;;;;;;;21.45;43.55;101660.16;7283202;19;153537;-61
2022/05/12 10:19:03;;;;;;;;;;;;;;;21.42;43.54;101667.22;7283617;19;151961;-61
2022/05/12 10:21:41;;;;;;;;;;;;;;;21.50;42.86;101660.09;7282356;19;152633;-62
2022/05/12 10:24:08;;;;;;;;;;;;;;;21.50;43.05;101646.88;7284058;19;151917;-61
2022/05/12 10:26:38;;;;;;;;;;;;;;;21.47;43.56;101644.69;7290106;19;152414;-61
2022/05/12 10:29:21;;;;;;;;;;;;;;;21.47;43.09;101653.13;7283926;19;151872;-61
2022/05/12 10:32:01;;;;;;;;;;;;;;;21.60;42.99;101660.84;7284914;19;152152;-59
2022/05/12 10:34:38;;;;;;;;;;;;;;;21.63;42.58;101660.22;7286054;19;152052;-59
2022/05/12 10:37:16;;;;;;;;;;;;;;;21.67;42.59;101644.44;7283442;19;153600;-57
2022/05/12 10:39:53;;;;;;;;;;;;;;;21.65;42.44;101643.06;7283481;19;152053;-57
2022/05/12 10:42:29;;;;;;;;;;;;;;;21.61;42.63;101653.25;7285209;19;153347;-58
2022/05/12 10:45:05;;;;;;;;;;;;;;;21.62;42.67;101649.31;7283785;19;154028;-59
2022/05/12 10:47:42;;;;;;;;;;;;;;;21.58;42.55;101654.66;7291047;19;151987;-61
2022/05/12 10:50:09;;;;;;;;;;;;;;;21.56;42.56;101656.13;7282458;19;154153;-62
2022/05/12 10:52:45;;;;;;;;;;;;;;;21.61;42.02;101650.44;7285903;19;152105;-62
2022/05/12 10:55:18;;;;;;;;;;;;;;;21.56;42.22;101656.94;7284449;19;152887;-61
2022/05/12 10:57:55;;;;;;;;;;;;;;;21.52;42.26;101660.66;7279806;19;154100;-62
2022/05/12 11:00:34;;;;;;;;;;;;;;;21.52;41.55;101655.03;7280927;19;151858;-61
2022/05/12 11:03:04;;;;;;;;;;;;;;;21.56;41.67;101651.31;7277558;19;153577;-61
2022/05/12 11:05:36;;;;;;;;;;;;;;;21.59;41.91;101650.72;7284284;19;153451;-61
2022/05/12 11:08:04;;;;;;;;;;;;;;;21.58;41.67;101651.84;7283025;19;151921;-61
2022/05/12 11:10:39;;;;;;;;;;;;;;;21.56;41.60;101656.94;7289847;19;152886;-61
2022/05/12 11:13:12;;;;;;;;;;;;;;;21.51;41.46;101645.75;7284767;19;152262;-61
2022/05/12 11:15:49;;;;;;;;;;;;;;;21.55;41.77;101644.03;7281734;19;153898;-61
2022/05/12 11:18:19;;;;;;;;;;;;;;;21.55;41.43;101648.81;7282291;19;152115;-61
2022/05/12 11:20:49;;;;;;;;;;;;;;;21.56;41.25;101642.06;7281908;19;153446;-61
2022/05/12 11:23:26;;;;;;;;;;;;;;;21.59;40.99;101638.63;7281113;19;152974;-61
2022/05/12 11:26:00;;;;;;;;;;;;;;;21.54;41.61;101636.72;7281824;19;153881;-60
2022/05/12 11:31:17;;;;;;;;;;;;;;;21.50;41.37;101632.00;7279808;19;151758;-61
2022/05/12 11:33:49;;;;;;;;;;;;;;;21.48;41.69;101637.09;7286432;19;154056;-61
2022/05/12 11:36:16;;;;;;;;;;;;;;;21.46;41.98;101640.19;7282619;19;153357;-61
2022/05/12 11:38:47;;;;;;;;;;;;;;;21.43;41.53;101639.94;7282732;19;153338;-61
2022/05/12 11:41:23;;;;;;;;;;;;;;;21.40;41.72;101647.00;7282880;19;151794;-59
2022/05/12 11:46:30;;;;;;;;;;;;;;;21.35;41.75;101638.59;7280404;19;153466;-59
2022/05/12 11:49:00;;;;;;;;;;;;;;;21.36;41.38;101633.81;7283154;19;151967;-59
2022/05/12 11:51:28;;;;;;;;;;;;;;;21.35;41.42;101644.22;7278038;19;153524;-59
2022/05/12 11:53:58;;;;;;;;;;;;;;;21.33;41.89;101646.53;7279577;19;154504;-58
2022/05/12 11:56:35;;;;;;;;;;;;;;;21.31;41.32;101634.72;7288077;19;152110;-58
2022/05/12 11:59:11;;;;;;;;;;;;;;;21.27;41.67;101634.47;7277721;19;154709;-57
2022/05/12 12:01:44;;;;;;;;;;;;;;;21.27;41.33;101644.88;7277547;19;151789;-59
2022/05/12 12:04:14;;;;;;;;;;;;;;;21.30;41.62;101647.13;7281110;19;153378;-60
2022/05/12 12:06:42;;;;;;;;;;;;;;;21.31;41.43;101640.34;7282478;19;153558;-59
2022/05/12 12:09:19;;;;;;;;;;;;;;;21.33;41.15;101638.09;7281687;19;151929;-59
2022/05/12 12:11:46;;;;;;;;;;;;;;;21.29;41.43;101637.00;7279117;19;153438;-58
2022/05/12 12:14:32;;;;;;;;;;;;;;;21.28;41.51;101644.59;7279713;19;153971;-59
2022/05/12 12:17:02;;;;;;;;;;;;;;;21.25;41.50;101633.13;7279698;19;151871;-59
2022/05/12 12:19:39;;;;;;;;;;;;;;;21.23;41.58;101632.56;7289074;19;153726;-58
2022/05/12 12:22:06;;;;;;;;;;;;;;;21.22;41.52;101637.34;7282159;19;152060;-59
2022/05/12 12:24:38;;;;;;;;;;;;;;;21.20;40.90;101630.34;7282049;19;153200;-58
2022/05/12 12:27:15;;;;;;;;;;;;;;;21.18;40.87;101630.63;7280259;19;153273;-62
2022/05/12 12:29:43;;;;;;;;;;;;;;;21.19;41.09;101628.66;7280413;19;151944;-62
2022/05/12 12:32:19;;;;;;;;;;;;;;;21.20;41.41;101630.34;7280656;19;152197;-59
2022/05/12 12:34:49;;;;;;;;;;;;;;;21.19;41.29;101621.09;7278485;19;153958;-58
2022/05/12 12:37:33;;;;;;;;;;;;;;;21.21;40.97;101617.97;7279626;19;152075;-59
2022/05/12 12:40:00;;;;;;;;;;;;;;;21.23;41.24;101613.72;7282046;19;153303;-60
2022/05/12 12:42:29;;;;;;;;;;;;;;;21.24;41.23;101612.59;7286205;19;151930;-58
2022/05/12 12:44:57;;;;;;;;;;;;;;;21.23;40.83;101591.25;7284213;19;152695;-58
2022/05/12 12:47:30;;;;;;;;;;;;;;;21.25;40.92;101588.16;7284896;19;154003;-59
2022/05/12 12:50:05;;;;;;;;;;;;;;;21.23;40.76;101599.69;7286534;19;151747;-59
2022/05/12 12:52:38;;;;;;;;;;;;;;;21.22;40.67;101595.19;7287433;19;153558;-59
2022/05/12 12:57:52;;;;;;;;;;;;;;;21.18;40.81;101598.88;7287904;19;152513;-59
2022/05/12 13:00:28;;;;;;;;;;;;;;;21.16;40.93;101595.56;7282711;19;152914;-59
2022/05/12 13:02:58;;;;;;;;;;;;;;;21.14;40.74;101586.56;7289901;19;154198;-58
2022/05/12 13:05:25;;;;;;;;;;;;;;;21.14;40.39;101589.38;7285801;19;152740;-60